Дата Пункты Температура Давл., мм. Влажн., % Ветер Погодные явления
Воздуха Воды Направл. Скорость
13.09.19 06:00 Одесса 25.0 21.0 763 36 Пд 1 18 ГОДИН
13.09.19 03:00 Одесса 27.0 21.0 764 25 Пд 2 15 ГОДИН
13.09.19 12:00 Одесса 25.0 21.0 765 34 С 2 12 ГОДИН
13.09.19 09:00 Одесса 23.0 21.0 765 36 Пн 1 09 ГОДИН
13.09.19 06:00 Одесса 17.0 21.0 765 57 З 2 06 ГОДИН
13.09.19 03:00 Одесса 17.0 21.0 765 59 З 1 03 ГОДИНИ
12.09.19 09:00 Одесса 20.0 22.0 765 46 З 1 21 ГОДИНУ
12.09.19 06:00 Одесса 25.0 22.0 765 30 Пн 0 18 ГОДИН
12.09.19 03:00 Одесса 26.0 22.0 765 30 Пн-С 2 15 ГОДИН
12.09.19 12:00 Одесса 24.0 21.0 766 44 С 4 12 ГОДИН
12.09.19 09:00 Одесса 21.0 21.0 766 46 Пн 2 09 ГОДИН
12.09.19 06:00 Одесса 17.0 22.0 765 56 Пн 1 06 ГОДИН
12.09.19 03:00 Одесса 18.0 22.0 765 52 Пн 1 03 ГОДИНИ
11.09.19 09:00 Одесса 20.0 22.0 765 72 Пн 0 21 ГОДИНУ
11.09.19 06:00 Одесса 24.0 22.0 764 59 Пд-С 3 18 ГОДИН
11.09.19 03:00 Одесса 25.0 22.0 764 45 С 3 15 ГОДИН
11.09.19 12:00 Одесса 23.0 22.0 765 56 С 5 12 ГОДИН
11.09.19 09:00 Одесса 20.0 22.0 765 60 С 5 09 ГОДИН
11.09.19 06:00 Одесса 19.0 21.0 764 61 Пн-С 6 06 ГОДИН
11.09.19 03:00 Одесса 20.0 21.0 763 63 Пн-С 6 03 ГОДИНИ
Количество строк
1 2 3 4 5 6 7 8 9 10
Page 2 of 530